Time;durP1;ratioP1;P1;durP2;ratioP2;P2;SDS_P1;SDS_P2;PMS_P1;PMS_P2;Temp;Humidity;BMP_temperature;BMP_pressure;BME280_temperature;BME280_humidity;BME280_pressure;Samples;Min_cycle;Max_cycle;Signal;HPM_P1;HPM_P2
2023/01/20 00:01:25;;;;;;;47.42;12.27;;;3.40;90.00;;;;;;5103717;28;20113;-56
2023/01/20 00:03:51;;;;;;;51.25;12.20;;;3.40;90.00;;;;;;5105265;28;20054;-57
2023/01/20 00:06:17;;;;;;;56.55;11.93;;;3.40;90.00;;;;;;5086758;28;20088;-57
2023/01/20 00:08:42;;;;;;;48.47;11.25;;;3.40;90.20;;;;;;5103620;28;20078;-57
2023/01/20 00:11:10;;;;;;;37.92;11.40;;;3.40;90.00;;;;;;5103736;28;20024;-57
2023/01/20 00:13:35;;;;;;;51.03;11.60;;;3.30;89.90;;;;;;5086805;28;20020;-57
2023/01/20 00:16:02;;;;;;;54.63;11.50;;;3.30;89.90;;;;;;5104999;28;20101;-57
2023/01/20 00:18:28;;;;;;;57.08;11.93;;;3.30;90.00;;;;;;5103650;28;20098;-56
2023/01/20 00:20:53;;;;;;;41.45;9.75;;;3.30;90.00;;;;;;5086689;28;20044;-57
2023/01/20 00:23:19;;;;;;;39.35;11.10;;;3.20;90.00;;;;;;5103600;28;20107;-57
2023/01/20 00:25:45;;;;;;;35.65;10.52;;;3.20;90.00;;;;;;5086541;28;20032;-57
2023/01/20 00:28:10;;;;;;;41.92;10.98;;;3.20;90.10;;;;;;5104773;28;20146;-57
2023/01/20 00:30:36;;;;;;;47.25;11.40;;;3.20;90.10;;;;;;5104585;28;20091;-57
2023/01/20 00:33:01;;;;;;;44.63;11.93;;;3.20;90.10;;;;;;5103356;28;20028;-57
2023/01/20 00:35:27;;;;;;;49.30;10.95;;;3.20;90.10;;;;;;5103598;28;20035;-56
2023/01/20 00:37:52;;;;;;;38.58;9.95;;;3.20;90.10;;;;;;5103892;28;20016;-57
2023/01/20 00:40:18;;;;;;;43.47;10.57;;;3.20;90.10;;;;;;5090310;28;20058;-57
2023/01/20 00:42:43;;;;;;;42.42;11.07;;;3.10;90.10;;;;;;5108832;28;20209;-57
2023/01/20 00:45:09;;;;;;;47.85;10.35;;;3.10;90.10;;;;;;5108795;28;20096;-57
2023/01/20 00:47:35;;;;;;;43.15;11.23;;;3.10;90.20;;;;;;5108519;28;20036;-57
2023/01/20 00:50:00;;;;;;;36.85;10.73;;;3.10;90.20;;;;;;5107356;28;20016;-56
2023/01/20 00:52:26;;;;;;;37.80;10.70;;;3.10;90.20;;;;;;5107237;28;20055;-57
2023/01/20 00:54:51;;;;;;;39.65;9.85;;;3.10;90.20;;;;;;5107387;28;20358;-57
2023/01/20 00:57:17;;;;;;;33.75;10.05;;;3.10;90.20;;;;;;5107186;28;20490;-57
2023/01/20 00:59:42;;;;;;;40.50;10.38;;;3.00;90.20;;;;;;5108434;28;20032;-57
2023/01/20 01:02:08;;;;;;;34.90;9.90;;;3.00;90.20;;;;;;5106838;28;20028;-57
2023/01/20 01:04:33;;;;;;;35.67;9.77;;;3.00;90.20;;;;;;5106835;28;20024;-57
2023/01/20 01:06:59;;;;;;;31.98;10.35;;;2.90;90.20;;;;;;5106876;28;20036;-56
2023/01/20 01:09:24;;;;;;;27.25;9.75;;;3.00;90.30;;;;;;5106814;28;20083;-57
2023/01/20 01:11:51;;;;;;;33.33;9.80;;;2.90;90.30;;;;;;5108220;28;20036;-57
2023/01/20 01:14:17;;;;;;;38.53;9.90;;;2.90;90.20;;;;;;5106694;28;20161;-57
2023/01/20 01:16:42;;;;;;;33.40;9.00;;;2.90;90.30;;;;;;5108063;28;20084;-57
2023/01/20 01:19:08;;;;;;;31.20;9.57;;;2.90;90.40;;;;;;5108066;28;20427;-57
2023/01/20 01:21:33;;;;;;;28.48;9.18;;;2.90;90.30;;;;;;5107945;28;20035;-57
2023/01/20 01:23:59;;;;;;;26.67;8.57;;;2.80;90.30;;;;;;5106961;28;20024;-56
2023/01/20 01:26:25;;;;;;;31.20;8.88;;;2.80;90.30;;;;;;5106809;28;20088;-56
2023/01/20 01:28:50;;;;;;;22.83;8.38;;;2.80;90.30;;;;;;5108001;28;20036;-56
2023/01/20 01:31:17;;;;;;;28.70;9.02;;;2.80;90.30;;;;;;5106533;28;20038;-57
2023/01/20 01:33:43;;;;;;;30.08;8.18;;;2.80;90.30;;;;;;5107770;28;20483;-57
2023/01/20 01:36:11;;;;;;;30.30;9.48;;;2.80;90.30;;;;;;5106407;28;20119;-57
2023/01/20 01:38:37;;;;;;;21.55;7.57;;;2.80;90.40;;;;;;5106446;28;20029;-56
2023/01/20 01:41:02;;;;;;;29.15;8.18;;;2.70;90.30;;;;;;5106467;28;20031;-57
2023/01/20 01:43:32;;;;;;;23.70;8.65;;;2.70;90.30;;;;;;5106195;28;20028;-57
2023/01/20 01:45:58;;;;;;;30.42;8.60;;;2.70;90.30;;;;;;5106332;28;20013;-57
2023/01/20 01:48:36;;;;;;;25.80;8.88;;;2.70;90.30;;;;;;5105789;28;20051;-57
2023/01/20 01:51:12;;;;;;;25.15;8.50;;;2.70;90.30;;;;;;5105040;28;20020;-57
2023/01/20 01:53:40;;;;;;;21.67;7.65;;;2.70;90.30;;;;;;5106088;28;20032;-56
2023/01/20 01:56:06;;;;;;;23.77;8.45;;;2.70;90.30;;;;;;5105800;28;20282;-57
2023/01/20 01:58:34;;;;;;;23.23;6.93;;;2.70;90.30;;;;;;5106076;28;20042;-57
2023/01/20 02:00:59;;;;;;;27.52;8.40;;;2.60;90.30;;;;;;5106007;28;20032;-57
2023/01/20 02:03:27;;;;;;;24.27;8.18;;;2.60;90.30;;;;;;5105809;28;20157;-57
2023/01/20 02:05:53;;;;;;;26.52;8.32;;;2.60;90.30;;;;;;5105749;28;20058;-57
2023/01/20 02:08:19;;;;;;;21.30;6.97;;;2.60;90.30;;;;;;5107377;28;20024;-56
2023/01/20 02:10:44;;;;;;;21.52;8.50;;;2.60;90.40;;;;;;5105648;28;20082;-57
2023/01/20 02:13:10;;;;;;;27.17;8.45;;;2.60;90.40;;;;;;5107205;28;20036;-57
2023/01/20 02:15:50;;;;;;;20.70;7.28;;;2.60;90.40;;;;;;5105606;28;20115;-57
2023/01/20 02:18:38;;;;;;;30.17;8.65;;;2.50;90.50;;;;;;5105663;28;20440;-56
2023/01/20 02:21:45;;;;;;;24.15;9.10;;;2.50;90.40;;;;;;5106922;28;20052;-56
2023/01/20 02:24:42;;;;;;;22.35;9.10;;;2.50;90.50;;;;;;5105525;28;20020;-56
2023/01/20 02:27:22;;;;;;;26.30;9.05;;;2.50;90.50;;;;;;5106868;28;20063;-57
2023/01/20 02:30:03;;;;;;;25.42;8.48;;;2.50;90.50;;;;;;5105238;28;20083;-57
2023/01/20 02:33:06;;;;;;;26.58;8.52;;;2.50;90.50;;;;;;5106685;28;20043;-56
2023/01/20 02:35:43;;;;;;;17.92;8.25;;;2.50;90.50;;;;;;5072091;28;20024;-57
2023/01/20 02:38:30;;;;;;;20.52;8.77;;;2.40;90.50;;;;;;5105321;28;20154;-57
2023/01/20 02:41:03;;;;;;;20.02;9.25;;;2.40;90.50;;;;;;5106489;28;20035;-57
2023/01/20 02:43:43;;;;;;;22.20;8.00;;;2.40;90.50;;;;;;5089063;28;20100;-56
2023/01/20 02:46:20;;;;;;;18.83;8.48;;;2.40;90.50;;;;;;5104877;28;20028;-56
2023/01/20 02:48:50;;;;;;;25.92;8.85;;;2.40;90.50;;;;;;5104877;28;20066;-57
2023/01/20 02:51:22;;;;;;;18.10;8.55;;;2.40;90.50;;;;;;5104979;28;20492;-56
2023/01/20 02:53:50;;;;;;;21.67;8.57;;;2.40;90.50;;;;;;5104915;28;20032;-57
2023/01/20 02:56:16;;;;;;;21.42;8.88;;;2.40;90.50;;;;;;5104661;28;20024;-57
2023/01/20 02:58:49;;;;;;;21.30;8.68;;;2.40;90.50;;;;;;5105088;28;20072;-57
2023/01/20 03:01:49;;;;;;;19.30;8.43;;;2.30;90.50;;;;;;5104977;28;20035;-56
2023/01/20 03:04:17;;;;;;;21.13;9.10;;;2.40;90.50;;;;;;5062060;28;20051;-57
2023/01/20 03:06:45;;;;;;;18.05;7.80;;;2.30;90.50;;;;;;5104561;28;20108;-57
2023/01/20 03:09:13;;;;;;;18.33;8.38;;;2.30;90.50;;;;;;5104607;28;20024;-57
2023/01/20 03:11:42;;;;;;;17.42;9.07;;;2.30;90.50;;;;;;5104713;28;20016;-56
2023/01/20 03:14:10;;;;;;;20.45;8.20;;;2.30;90.50;;;;;;5104403;28;20046;-57
2023/01/20 03:16:35;;;;;;;18.35;8.32;;;2.30;90.60;;;;;;5087448;28;20038;-56
2023/01/20 03:19:01;;;;;;;17.30;8.45;;;2.30;90.60;;;;;;5104590;28;20557;-57
2023/01/20 03:21:26;;;;;;;16.45;8.23;;;2.30;90.60;;;;;;5087331;28;20050;-57
2023/01/20 03:23:53;;;;;;;14.80;8.68;;;2.30;90.60;;;;;;5104303;28;20047;-57
2023/01/20 03:26:21;;;;;;;17.25;7.95;;;2.30;90.60;;;;;;5087296;28;20024;-57
2023/01/20 03:28:47;;;;;;;16.73;8.25;;;2.30;90.60;;;;;;5087316;28;20032;-57
2023/01/20 03:31:20;;;;;;;19.10;8.20;;;2.20;90.60;;;;;;5104286;28;20028;-57
2023/01/20 03:33:46;;;;;;;19.58;7.65;;;2.20;90.60;;;;;;5087255;28;20024;-57
2023/01/20 03:36:11;;;;;;;17.40;7.65;;;2.30;90.60;;;;;;5103969;28;20024;-57
2023/01/20 03:38:37;;;;;;;16.52;8.70;;;2.20;90.60;;;;;;5104026;28;20035;-57
2023/01/20 03:41:12;;;;;;;25.45;8.02;;;2.20;90.60;;;;;;5104054;28;20020;-57
2023/01/20 03:43:49;;;;;;;16.98;8.30;;;2.20;90.60;;;;;;5103965;28;20040;-57
2023/01/20 03:46:21;;;;;;;15.50;9.05;;;2.20;90.70;;;;;;5104090;28;20135;-57
2023/01/20 03:48:52;;;;;;;18.10;9.13;;;2.20;90.70;;;;;;5103641;28;20093;-57
2023/01/20 03:51:24;;;;;;;20.58;8.05;;;2.20;90.60;;;;;;5103973;28;20024;-56
2023/01/20 03:53:54;;;;;;;16.50;8.05;;;2.20;90.60;;;;;;5104088;28;20024;-57
2023/01/20 03:56:28;;;;;;;14.35;7.25;;;2.20;91.00;;;;;;5103972;28;20028;-56
2023/01/20 03:58:55;;;;;;;24.20;8.52;;;2.20;90.80;;;;;;5103706;28;20131;-57
2023/01/20 04:01:23;;;;;;;10.95;7.03;;;2.20;90.80;;;;;;5103552;28;20325;-56
2023/01/20 04:03:51;;;;;;;17.27;8.00;;;2.20;90.90;;;;;;5103569;28;20046;-57
2023/01/20 04:06:17;;;;;;;17.08;7.10;;;2.20;91.00;;;;;;5103747;28;20037;-56
2023/01/20 04:08:54;;;;;;;17.55;7.78;;;2.20;91.10;;;;;;5103570;28;20258;-57
2023/01/20 04:11:20;;;;;;;14.38;8.27;;;2.20;91.30;;;;;;5103756;28;20035;-57
2023/01/20 04:13:45;;;;;;;17.23;7.65;;;2.20;91.40;;;;;;5103031;28;20036;-57
2023/01/20 04:16:14;;;;;;;16.63;8.10;;;2.20;91.40;;;;;;5103680;28;20221;-57
2023/01/20 04:18:40;;;;;;;14.93;7.95;;;2.20;91.50;;;;;;5103661;28;20087;-56
2023/01/20 04:21:06;;;;;;;13.80;8.45;;;2.20;91.50;;;;;;5103557;28;20035;-57
2023/01/20 04:23:39;;;;;;;17.90;9.32;;;2.20;91.60;;;;;;5103505;28;20139;-57
2023/01/20 04:26:04;;;;;;;17.13;7.72;;;2.20;91.50;;;;;;5103704;28;20045;-57
2023/01/20 04:28:31;;;;;;;12.65;8.35;;;2.20;91.50;;;;;;5103440;28;20092;-56
2023/01/20 04:30:56;;;;;;;17.17;7.97;;;2.20;91.50;;;;;;5103368;28;20062;-56
2023/01/20 04:33:22;;;;;;;22.65;10.07;;;2.20;91.70;;;;;;5086507;28;20024;-57
2023/01/20 04:35:47;;;;;;;46.63;11.82;;;2.20;91.30;;;;;;5103204;28;20032;-57
2023/01/20 04:38:13;;;;;;;85.22;14.63;;;2.20;91.20;;;;;;5103340;28;20034;-57
2023/01/20 04:40:38;;;;;;;48.38;12.40;;;2.20;91.20;;;;;;5104744;28;20425;-57
2023/01/20 04:43:04;;;;;;;36.20;10.55;;;2.20;91.20;;;;;;5103360;28;20495;-57
2023/01/20 04:45:29;;;;;;;41.47;10.35;;;2.20;91.10;;;;;;5104717;28;20024;-56
2023/01/20 04:47:55;;;;;;;29.08;10.30;;;2.20;91.00;;;;;;5103085;28;20067;-57
2023/01/20 04:50:20;;;;;;;39.35;10.93;;;2.20;91.00;;;;;;5103276;28;20369;-57
2023/01/20 04:52:46;;;;;;;29.38;9.60;;;2.20;90.90;;;;;;5102792;28;20464;-56
2023/01/20 04:55:12;;;;;;;36.33;10.90;;;2.20;90.90;;;;;;5104712;28;20039;-56
2023/01/20 04:57:37;;;;;;;30.35;9.57;;;2.20;91.00;;;;;;5103137;28;20025;-57
2023/01/20 05:00:04;;;;;;;28.17;9.13;;;2.20;90.90;;;;;;5103107;28;20024;-57
2023/01/20 05:02:29;;;;;;;30.30;9.38;;;2.20;90.90;;;;;;5103001;28;20417;-57
2023/01/20 05:04:55;;;;;;;42.40;10.73;;;2.20;91.00;;;;;;5104591;28;20032;-57
2023/01/20 05:07:20;;;;;;;34.20;9.57;;;2.20;91.00;;;;;;5103013;28;20040;-57
2023/01/20 05:09:46;;;;;;;30.33;9.52;;;2.20;91.00;;;;;;5102856;28;20107;-57
2023/01/20 05:12:11;;;;;;;19.13;9.02;;;2.20;91.00;;;;;;5103004;28;20082;-57
2023/01/20 05:14:37;;;;;;;26.70;9.05;;;2.10;90.90;;;;;;5104474;28;20436;-57
2023/01/20 05:17:03;;;;;;;40.28;9.60;;;2.10;90.90;;;;;;5104384;28;20035;-57
2023/01/20 05:19:28;;;;;;;31.00;9.70;;;2.10;90.90;;;;;;5102925;28;20020;-57
2023/01/20 05:21:54;;;;;;;29.00;9.32;;;2.10;90.90;;;;;;5104388;28;20036;-56
2023/01/20 05:24:19;;;;;;;27.35;9.32;;;2.10;90.70;;;;;;5104246;28;20028;-57
2023/01/20 05:26:45;;;;;;;24.88;8.98;;;2.10;90.80;;;;;;5106439;28;20059;-57
2023/01/20 05:29:10;;;;;;;32.33;8.90;;;2.10;90.70;;;;;;5107627;28;20039;-56
2023/01/20 05:31:41;;;;;;;22.25;8.63;;;2.10;90.80;;;;;;5107663;28;20030;-57
2023/01/20 05:34:08;;;;;;;24.65;9.27;;;2.10;90.80;;;;;;5106834;28;20026;-57
2023/01/20 05:36:33;;;;;;;18.63;8.10;;;2.10;90.80;;;;;;5105969;28;20016;-56
2023/01/20 05:38:59;;;;;;;23.40;8.63;;;2.10;90.80;;;;;;5107546;28;20020;-57
2023/01/20 05:41:24;;;;;;;16.50;7.53;;;2.10;90.80;;;;;;5106465;28;20020;-57
2023/01/20 05:43:52;;;;;;;22.88;8.13;;;2.10;90.90;;;;;;5106203;28;20033;-57
2023/01/20 05:46:18;;;;;;;22.00;8.07;;;2.10;90.90;;;;;;5106236;28;20028;-56
2023/01/20 05:48:44;;;;;;;18.05;8.05;;;2.10;90.90;;;;;;5107329;28;20107;-57
2023/01/20 05:51:09;;;;;;;25.05;8.10;;;2.10;91.00;;;;;;5107398;28;20103;-56
2023/01/20 05:53:35;;;;;;;20.05;7.35;;;2.10;91.00;;;;;;5106110;28;20024;-57
2023/01/20 05:56:01;;;;;;;19.23;7.90;;;2.10;91.50;;;;;;5106070;28;20061;-57
2023/01/20 05:58:27;;;;;;;14.50;6.75;;;2.10;91.20;;;;;;5088859;28;20440;-57
2023/01/20 06:00:53;;;;;;;22.40;8.40;;;2.10;91.20;;;;;;5105927;28;20107;-56
2023/01/20 06:03:18;;;;;;;16.02;7.38;;;2.10;91.20;;;;;;5107362;28;20398;-57
2023/01/20 06:05:44;;;;;;;19.42;7.90;;;2.10;91.20;;;;;;5105821;28;20024;-57
2023/01/20 06:08:09;;;;;;;19.05;7.30;;;2.10;91.30;;;;;;5105606;28;20057;-57
2023/01/20 06:10:35;;;;;;;15.23;7.22;;;2.10;91.30;;;;;;5106937;28;20459;-57
2023/01/20 06:13:00;;;;;;;15.80;7.60;;;2.10;91.40;;;;;;5105735;28;20463;-57
2023/01/20 06:15:26;;;;;;;19.17;7.55;;;2.10;91.30;;;;;;5107271;28;20031;-56
2023/01/20 06:17:51;;;;;;;12.38;7.28;;;2.10;91.30;;;;;;5106914;28;20092;-57
2023/01/20 06:20:17;;;;;;;17.48;8.10;;;2.10;91.70;;;;;;5105230;28;20080;-57
2023/01/20 06:22:43;;;;;;;17.55;7.60;;;2.10;91.50;;;;;;5088563;28;20032;-57
2023/01/20 06:25:09;;;;;;;14.05;7.32;;;2.10;91.50;;;;;;5105324;28;20346;-57
2023/01/20 06:27:34;;;;;;;25.08;8.10;;;2.10;91.50;;;;;;5105344;28;20118;-56
2023/01/20 06:30:00;;;;;;;14.88;6.85;;;2.10;91.60;;;;;;5105456;28;20105;-57
2023/01/20 06:32:25;;;;;;;15.63;6.57;;;2.10;91.60;;;;;;5106667;28;20357;-57
2023/01/20 06:34:53;;;;;;;13.23;7.07;;;2.10;91.70;;;;;;5105248;28;20020;-57
2023/01/20 06:37:19;;;;;;;19.35;7.45;;;2.10;91.60;;;;;;5105166;28;20024;-56
2023/01/20 06:39:44;;;;;;;20.55;7.18;;;2.00;91.70;;;;;;5088501;28;20047;-56
2023/01/20 06:42:10;;;;;;;13.68;6.55;;;2.00;91.70;;;;;;5088254;28;20032;-56
2023/01/20 06:44:35;;;;;;;18.67;6.97;;;2.00;91.70;;;;;;5106426;28;20076;-57
2023/01/20 06:47:01;;;;;;;15.68;7.10;;;2.00;91.70;;;;;;5104934;28;20039;-57
2023/01/20 06:49:26;;;;;;;15.23;7.10;;;2.00;91.70;;;;;;5105001;28;20031;-57
2023/01/20 06:51:52;;;;;;;14.32;6.25;;;2.00;91.70;;;;;;5104789;28;20036;-57
2023/01/20 06:54:18;;;;;;;16.35;6.63;;;2.00;91.70;;;;;;5104707;28;20103;-57
2023/01/20 06:56:43;;;;;;;11.85;6.70;;;2.00;91.70;;;;;;5105962;28;20438;-56
2023/01/20 06:59:10;;;;;;;16.52;7.13;;;2.00;91.60;;;;;;5104977;28;20356;-57
2023/01/20 07:01:35;;;;;;;11.13;6.35;;;2.00;91.60;;;;;;5106126;28;20024;-57
2023/01/20 07:04:01;;;;;;;12.30;5.88;;;2.00;91.60;;;;;;5106095;28;20035;-57
2023/01/20 07:06:34;;;;;;;16.75;6.80;;;2.00;91.60;;;;;;5106185;28;20087;-56
2023/01/20 07:09:00;;;;;;;14.77;6.82;;;2.00;91.60;;;;;;5104468;28;20062;-57
2023/01/20 07:11:26;;;;;;;15.18;6.13;;;2.00;91.50;;;;;;5104446;28;20025;-57
2023/01/20 07:13:52;;;;;;;16.23;7.72;;;2.00;91.60;;;;;;5104319;28;20043;-57
2023/01/20 07:16:17;;;;;;;18.77;6.63;;;2.00;91.50;;;;;;5106112;28;20024;-57
2023/01/20 07:18:46;;;;;;;17.50;6.47;;;2.00;91.50;;;;;;5094075;28;20496;-57
2023/01/20 07:21:11;;;;;;;11.20;6.40;;;2.00;91.50;;;;;;5104088;28;20048;-57
2023/01/20 07:23:37;;;;;;;13.18;6.35;;;2.00;91.50;;;;;;5102816;28;20024;-56
2023/01/20 07:26:04;;;;;;;18.08;7.25;;;2.00;91.50;;;;;;5103974;28;20069;-57
2023/01/20 07:28:30;;;;;;;12.65;6.95;;;2.00;91.40;;;;;;5102886;28;20101;-56
2023/01/20 07:31:04;;;;;;;10.77;6.07;;;2.00;91.40;;;;;;5104244;28;20035;-57
2023/01/20 07:33:30;;;;;;;13.95;6.32;;;2.00;91.30;;;;;;5104448;28;20138;-57
2023/01/20 07:35:56;;;;;;;10.63;6.70;;;2.10;91.30;;;;;;5104397;28;20048;-57
2023/01/20 07:38:21;;;;;;;10.32;6.40;;;2.00;91.30;;;;;;5093355;28;20039;-57
2023/01/20 07:40:47;;;;;;;14.02;6.80;;;2.10;91.30;;;;;;5113924;28;20461;-57
2023/01/20 07:43:13;;;;;;;12.07;6.88;;;2.10;91.40;;;;;;5105075;28;20059;-57
2023/01/20 07:45:38;;;;;;;10.57;5.90;;;2.10;91.30;;;;;;5086930;28;20333;-57
2023/01/20 07:48:05;;;;;;;17.10;6.50;;;2.10;91.30;;;;;;5102187;28;20115;-57
2023/01/20 07:50:31;;;;;;;14.23;6.78;;;2.10;91.30;;;;;;5103900;28;20043;-57
2023/01/20 07:52:56;;;;;;;18.63;6.05;;;2.10;91.30;;;;;;5103529;28;20024;-56
2023/01/20 07:55:22;;;;;;;10.90;6.28;;;2.10;91.30;;;;;;5105138;28;20031;-57
2023/01/20 07:57:47;;;;;;;15.98;7.18;;;2.10;91.20;;;;;;5103477;28;20119;-57
2023/01/20 08:00:13;;;;;;;15.13;6.68;;;2.10;91.20;;;;;;5103487;28;20032;-57
2023/01/20 08:02:39;;;;;;;14.07;6.43;;;2.10;91.20;;;;;;5100776;28;20032;-57
2023/01/20 08:05:05;;;;;;;15.23;6.43;;;2.10;91.20;;;;;;5104437;28;20134;-57
2023/01/20 08:07:30;;;;;;;19.02;6.97;;;2.10;91.20;;;;;;5104819;28;20133;-56
2023/01/20 08:09:56;;;;;;;20.25;7.38;;;2.10;91.30;;;;;;5101955;28;20024;-57
2023/01/20 08:12:22;;;;;;;24.10;7.55;;;2.00;91.30;;;;;;5093746;28;20310;-56
2023/01/20 08:14:48;;;;;;;22.85;7.90;;;2.10;91.30;;;;;;5096843;28;20035;-57
2023/01/20 08:17:13;;;;;;;24.35;7.32;;;2.10;91.40;;;;;;5103622;28;20396;-57
2023/01/20 08:19:39;;;;;;;22.27;7.05;;;2.10;91.40;;;;;;5103878;28;20042;-56
2023/01/20 08:22:05;;;;;;;22.02;7.55;;;2.10;91.40;;;;;;5123626;28;20043;-56
2023/01/20 08:24:30;;;;;;;21.05;7.60;;;2.10;91.30;;;;;;5115250;28;20013;-57
2023/01/20 08:26:56;;;;;;;19.70;7.15;;;2.10;91.40;;;;;;5099353;28;20064;-57
2023/01/20 08:29:21;;;;;;;23.85;7.90;;;2.10;91.40;;;;;;5090330;28;20032;-56
2023/01/20 08:31:47;;;;;;;26.00;7.20;;;2.10;91.40;;;;;;5103119;28;20016;-56
2023/01/20 08:34:13;;;;;;;30.80;7.93;;;2.10;91.40;;;;;;5103177;28;20024;-57
2023/01/20 08:36:39;;;;;;;38.15;8.43;;;2.20;91.50;;;;;;5098949;28;20086;-56
2023/01/20 08:39:07;;;;;;;27.52;7.63;;;2.20;91.60;;;;;;5066631;28;20028;-57
2023/01/20 08:41:35;;;;;;;126.90;14.82;;;2.20;91.60;;;;;;5101854;28;20024;-57
2023/01/20 08:44:01;;;;;;;37.53;7.63;;;2.30;91.50;;;;;;5103121;28;20028;-57
2023/01/20 08:46:27;;;;;;;28.20;7.72;;;2.30;91.50;;;;;;5094543;28;20052;-56
2023/01/20 08:48:53;;;;;;;31.23;8.05;;;2.30;91.50;;;;;;5082182;28;20036;-56
2023/01/20 08:51:27;;;;;;;31.48;8.57;;;2.30;91.50;;;;;;5099372;28;20020;-57
2023/01/20 08:53:52;;;;;;;38.83;8.32;;;2.30;91.50;;;;;;5103079;28;20133;-56
2023/01/20 08:56:18;;;;;;;20.10;7.53;;;2.30;91.50;;;;;;5100989;28;20036;-57
2023/01/20 08:58:44;;;;;;;41.25;9.65;;;2.30;91.70;;;;;;5103353;28;20059;-57
2023/01/20 09:01:11;;;;;;;31.23;6.93;;;2.30;91.40;;;;;;5106872;28;20525;-56
2023/01/20 09:03:36;;;;;;;46.40;8.60;;;2.30;91.40;;;;;;5103897;28;20043;-56
2023/01/20 09:06:03;;;;;;;48.28;8.60;;;2.30;91.50;;;;;;5106938;28;20024;-57
2023/01/20 09:08:29;;;;;;;38.50;9.07;;;2.40;91.60;;;;;;5106909;28;20028;-57
2023/01/20 09:11:01;;;;;;;34.53;8.38;;;2.40;91.50;;;;;;5089993;28;20101;-57
2023/01/20 09:13:27;;;;;;;47.13;9.45;;;2.40;91.50;;;;;;5090490;28;20037;-57
2023/01/20 09:15:52;;;;;;;45.78;9.40;;;2.40;91.50;;;;;;5095977;28;20035;-57
2023/01/20 09:18:18;;;;;;;52.03;8.82;;;2.40;91.60;;;;;;5104007;28;20494;-56
2023/01/20 09:20:43;;;;;;;47.22;9.82;;;2.40;91.50;;;;;;5102285;28;20085;-58
2023/01/20 09:23:09;;;;;;;55.85;9.52;;;2.50;91.50;;;;;;5105741;28;20032;-57
2023/01/20 09:25:35;;;;;;;42.55;9.38;;;2.50;91.50;;;;;;5099939;28;20083;-57
2023/01/20 09:28:00;;;;;;;48.28;8.75;;;2.50;91.50;;;;;;5100825;28;20028;-56
2023/01/20 09:30:26;;;;;;;48.92;9.07;;;2.50;91.60;;;;;;5085895;28;20400;-57
2023/01/20 09:32:54;;;;;;;44.55;9.82;;;2.50;91.60;;;;;;5068875;28;20024;-57
2023/01/20 09:35:19;;;;;;;45.78;8.82;;;2.60;91.60;;;;;;5085087;28;20037;-57
2023/01/20 09:46:12;;;;;;;52.15;10.30;;;2.60;91.70;;;;;;5086001;28;20058;-57
2023/01/20 09:54:40;;;;;;;52.38;10.23;;;2.70;91.70;;;;;;5085814;28;20028;-57
2023/01/20 09:57:06;;;;;;;223.13;29.30;;;2.70;91.70;;;;;;5085415;28;20032;-57
2023/01/20 09:59:51;;;;;;;109.93;13.88;;;2.80;91.70;;;;;;5085170;28;20020;-57
2023/01/20 10:02:21;;;;;;;68.82;11.45;;;2.80;91.60;;;;;;5085661;28;20036;-57
2023/01/20 10:04:50;;;;;;;66.78;10.98;;;2.80;91.60;;;;;;5085506;28;20033;-57
2023/01/20 10:07:23;;;;;;;62.33;12.02;;;2.80;91.60;;;;;;5085618;28;20056;-57
2023/01/20 10:09:54;;;;;;;74.90;11.45;;;2.90;91.60;;;;;;5085414;28;20453;-57
2023/01/20 10:12:33;;;;;;;70.80;11.27;;;2.90;91.60;;;;;;5084487;28;20119;-57
2023/01/20 10:15:20;;;;;;;66.85;10.88;;;2.90;91.50;;;;;;5085571;28;20027;-57
2023/01/20 10:18:08;;;;;;;66.40;11.95;;;3.00;91.50;;;;;;5085448;28;20032;-57
2023/01/20 10:20:57;;;;;;;47.25;9.98;;;3.00;91.40;;;;;;5068252;28;20021;-57
2023/01/20 10:23:28;;;;;;;76.28;10.88;;;3.00;91.40;;;;;;5084921;28;20111;-57
2023/01/20 10:26:15;;;;;;;89.75;12.23;;;3.00;91.40;;;;;;5084893;28;20082;-57
2023/01/20 10:29:00;;;;;;;71.78;10.70;;;3.00;91.40;;;;;;5085450;28;20093;-57
2023/01/20 10:31:27;;;;;;;62.45;10.35;;;3.10;91.30;;;;;;5085475;28;20028;-57
2023/01/20 10:33:54;;;;;;;56.88;11.10;;;3.10;91.30;;;;;;5084932;28;20036;-57
2023/01/20 10:36:23;;;;;;;50.17;10.75;;;3.10;91.30;;;;;;5084852;28;20021;-57
2023/01/20 10:38:58;;;;;;;67.75;11.50;;;3.10;91.30;;;;;;5084457;28;20041;-57
2023/01/20 10:41:29;;;;;;;;;;;3.10;91.30;;;;;;5086693;28;20088;-57
2023/01/20 10:43:55;;;;;;;65.13;9.90;;;3.10;91.30;;;;;;5086044;28;19954;-57
2023/01/20 10:46:43;;;;;;;57.97;10.70;;;3.10;91.20;;;;;;5084561;28;20086;-57
2023/01/20 10:49:24;;;;;;;75.13;12.15;;;3.10;91.20;;;;;;5086063;28;20092;-57
2023/01/20 10:52:11;;;;;;;68.95;11.25;;;3.10;91.20;;;;;;5084580;28;20033;-57
2023/01/20 10:54:41;;;;;;;63.60;10.65;;;3.10;91.20;;;;;;5067838;28;20082;-57
2023/01/20 10:57:09;;;;;;;49.72;10.73;;;3.10;91.20;;;;;;5084469;28;20149;-58
2023/01/20 10:59:45;;;;;;;77.97;11.05;;;3.10;91.20;;;;;;5083250;28;20158;-59
2023/01/20 11:02:17;;;;;;;69.65;10.55;;;3.20;91.20;;;;;;5084037;28;20039;-59
2023/01/20 11:04:48;;;;;;;115.40;15.18;;;3.20;91.20;;;;;;5083977;28;20098;-58
2023/01/20 11:07:16;;;;;;;71.63;12.82;;;3.20;91.20;;;;;;5082660;28;20082;-58
2023/01/20 11:09:42;;;;;;;71.43;12.10;;;3.20;91.30;;;;;;5083249;28;20056;-58
2023/01/20 11:12:22;;;;;;;86.57;13.27;;;3.20;91.20;;;;;;5083468;28;20127;-58
2023/01/20 11:14:48;;;;;;;71.97;12.02;;;3.20;91.20;;;;;;5082677;28;20041;-59
2023/01/20 11:17:19;;;;;;;71.47;11.38;;;3.20;91.20;;;;;;5065323;28;20024;-58
2023/01/20 11:19:55;;;;;;;91.97;14.05;;;3.20;91.00;;;;;;5065928;28;20054;-58
2023/01/20 11:22:31;;;;;;;93.18;15.05;;;3.20;91.10;;;;;;5083424;28;20096;-59
2023/01/20 11:24:58;;;;;;;90.28;13.55;;;3.20;91.10;;;;;;5083512;28;20102;-58
2023/01/20 11:27:26;;;;;;;85.53;12.75;;;3.30;91.10;;;;;;5083609;28;20029;-58
2023/01/20 11:29:59;;;;;;;82.85;13.43;;;3.20;91.00;;;;;;5083127;28;20033;-58
2023/01/20 11:32:35;;;;;;;80.13;15.50;;;3.30;91.10;;;;;;5065180;28;20036;-58
2023/01/20 11:35:16;;;;;;;95.63;15.77;;;3.30;91.00;;;;;;5068455;28;20036;-58
2023/01/20 11:37:42;;;;;;;115.05;15.85;;;3.30;90.90;;;;;;5089198;28;20477;-58
2023/01/20 11:40:25;;;;;;;89.32;15.05;;;3.30;90.90;;;;;;5105140;28;20024;-58
2023/01/20 11:42:51;;;;;;;202.50;25.73;;;3.30;91.10;;;;;;5102899;28;20278;-58
2023/01/20 11:45:34;;;;;;;155.27;18.38;;;3.30;90.90;;;;;;5102942;28;20042;-58
2023/01/20 11:48:17;;;;;;;121.55;17.58;;;3.30;90.80;;;;;;5086564;28;20176;-58
2023/01/20 11:50:54;;;;;;;110.72;16.58;;;3.40;90.80;;;;;;5104988;28;20023;-58
2023/01/20 11:53:25;;;;;;;128.95;18.55;;;3.40;90.70;;;;;;5103551;28;20404;-58
2023/01/20 11:56:02;;;;;;;153.27;19.05;;;3.40;90.60;;;;;;5086519;28;20016;-58
2023/01/20 11:58:32;;;;;;;132.73;17.48;;;3.40;90.60;;;;;;5086577;28;20141;-58
2023/01/20 12:01:03;;;;;;;133.38;15.63;;;3.50;90.60;;;;;;5102697;28;20031;-58
2023/01/20 12:03:52;;;;;;;113.07;15.35;;;3.40;90.50;;;;;;5101920;28;20092;-58
2023/01/20 12:06:27;;;;;;;120.05;15.15;;;3.50;90.50;;;;;;5103128;28;20123;-58
2023/01/20 12:09:05;;;;;;;128.30;17.13;;;3.50;90.60;;;;;;5103598;28;20036;-58
2023/01/20 12:11:57;;;;;;;83.43;14.73;;;3.60;90.60;;;;;;5087651;28;20066;-59
2023/01/20 12:14:36;;;;;;;97.32;13.77;;;3.60;90.50;;;;;;5089509;28;20031;-58
2023/01/20 12:17:02;;;;;;;77.65;13.32;;;3.60;90.30;;;;;;5087826;28;20028;-59
2023/01/20 12:19:46;;;;;;;73.68;12.60;;;3.60;90.20;;;;;;5104280;28;20031;-58
2023/01/20 12:22:14;;;;;;;77.22;12.75;;;3.60;90.20;;;;;;5104613;28;20027;-58
2023/01/20 12:25:07;;;;;;;87.25;13.77;;;3.60;90.20;;;;;;5103183;28;20039;-58
2023/01/20 12:27:34;;;;;;;84.18;12.50;;;3.60;90.30;;;;;;5088565;28;20024;-58
2023/01/20 12:30:06;;;;;;;74.90;12.18;;;3.60;90.20;;;;;;5086354;28;20032;-58
2023/01/20 12:32:32;;;;;;;102.93;12.50;;;3.60;90.10;;;;;;5086462;28;20039;-58
2023/01/20 12:34:58;;;;;;;79.47;11.60;;;3.60;90.00;;;;;;5104759;28;20016;-58
2023/01/20 12:37:43;;;;;;;81.32;12.13;;;3.60;90.00;;;;;;5107086;28;20035;-58
2023/01/20 12:40:30;;;;;;;91.75;13.85;;;3.60;90.10;;;;;;5107577;28;20038;-58
2023/01/20 12:43:15;;;;;;;76.70;11.10;;;3.70;90.20;;;;;;5108852;28;20127;-58
2023/01/20 12:45:59;;;;;;;62.88;11.65;;;3.70;90.20;;;;;;5107655;28;20387;-58
2023/01/20 12:48:52;;;;;;;74.38;12.55;;;3.70;90.00;;;;;;5108517;28;20036;-58
2023/01/20 12:51:45;;;;;;;76.65;11.63;;;3.70;90.00;;;;;;5108510;28;20476;-58
2023/01/20 12:54:33;;;;;;;81.80;12.63;;;3.70;90.00;;;;;;5107085;28;20354;-59
2023/01/20 12:57:27;;;;;;;58.55;10.98;;;3.70;90.00;;;;;;5108137;28;20061;-58
2023/01/20 13:00:31;;;;;;;44.55;9.77;;;3.60;90.00;;;;;;5036461;28;20099;-58
2023/01/20 13:03:08;;;;;;;67.38;11.10;;;3.60;89.90;;;;;;5093194;28;20099;-59
2023/01/20 13:05:47;;;;;;;68.32;10.63;;;3.60;89.90;;;;;;5103785;28;20046;-58
2023/01/20 13:08:35;;;;;;;57.95;11.70;;;3.70;89.90;;;;;;5090838;28;20100;-58
2023/01/20 13:11:36;;;;;;;40.58;9.68;;;3.70;90.00;;;;;;5087021;28;20028;-58